Flight Track Log - Related Links

Times and Time Zones

All times are in EDT time to prevent confusion due to time zone crossing. See the SWA183 flight status page for this flight to view local times or setup timezone preferences in your user account.

Time Position Orientation Groundspeed Altitude Reporting Facility
EDT Latitude Longitude Course Direction KTS MPH feet Rate Location/Type
Sat 12:52:00 AM 33.6890 -117.8610 23° Northeast 129 148 1,400  Level FlightAware ADS-B
Sat 12:52:26 AM 33.7060 -117.8530 21° North 181 208 2,400 2,426 Climbing FlightAware ADS-B
Sat 12:52:47 AM 33.7240 -117.8430 25° Northeast 215 247 3,300 2,571 Climbing FlightAware ADS-B
Sat 12:52:54 AM 33.7290 -117.8370 45° Northeast 224 258 3,600 3,300 Climbing FlightAware ADS-B
Sat 12:53:07 AM 33.7350 -117.8220 64° Northeast 233 268 4,400 3,545 Climbing FlightAware ADS-B
Sat 12:53:16 AM 33.7370 -117.8110 78° East 240 276 4,900 2,690 Climbing FlightAware ADS-B
Sat 12:53:36 AM 33.7280 -117.7850 113° Southeast 267 307 5,700 2,500 Climbing FlightAware ADS-B
Sat 12:53:40 AM 33.7240 -117.7800 134° Southeast 272 313 5,900 4,154 Climbing FlightAware ADS-B
Sat 12:53:49 AM 33.7160 -117.7710 137° Southeast 273 314 6,600 4,588 Climbing FlightAware ADS-B
Sat 12:53:57 AM 33.7070 -117.7640 147° Southeast 279 321 7,200 4,000 Climbing FlightAware ADS-B
Sat 12:54:04 AM 33.6990 -117.7610 163° South 283 326 7,600 3,500 Climbing FlightAware ADS-B
Sat 12:54:09 AM 33.6920 -117.7610 180° South 287 330 7,900 3,882 Climbing FlightAware ADS-B
Sat 12:54:38 AM 33.6590 -117.7830 209° Southwest 307 353 9,800 3,188 Climbing FlightAware ADS-B
Sat 12:55:13 AM 33.6230 -117.8290 227° Southwest 349 402 11,300 3,134 Climbing FlightAware ADS-B
Sat 12:55:45 AM 33.5840 -117.8730 223° Southwest 354 407 13,300 3,380 Climbing FlightAware ADS-B
Sat 12:56:24 AM 33.5370 -117.9270 224° Southwest 376 433 15,300 3,250 Climbing FlightAware ADS-B
Sat 12:56:57 AM 33.4970 -117.9770 226° Southwest 378 435 17,200 3,138 Climbing FlightAware ADS-B
Sat 12:57:29 AM 33.4590 -118.0280 228° Southwest 394 453 18,700 2,750 Climbing FlightAware ADS-B
Sat 12:58:09 AM 33.4110 -118.0940 229° Southwest 406 467 20,500 3,000 Climbing FlightAware ADS-B
Sat 12:58:45 AM 33.3670 -118.1550 229° Southwest 404 465 22,500 3,319 Climbing FlightAware ADS-B
Sat 12:58:56 AM 33.3570 -118.1780 243° Southwest 400 460 23,100 3,000 Climbing FlightAware ADS-B
Sat 12:59:13 AM 33.3510 -118.2140 259° West 396 456 23,900 2,488 Climbing FlightAware ADS-B
Sat 12:59:37 AM 33.3540 -118.2550 275° West 394 453 24,800 2,847 Climbing FlightAware ADS-B
Sat 01:00:12 AM 33.3670 -118.3420 280° West 397 457 26,700 3,000 Climbing FlightAware ADS-B
Sat 01:00:29 AM 33.3830 -118.3740 301° West 400 460 27,400 2,357 Climbing FlightAware ADS-B
Sat 01:00:40 AM 33.3960 -118.3920 311° West 404 465 27,800 2,357 Climbing FlightAware ADS-B
Sat 01:00:57 AM 33.4240 -118.4120 329° Northwest 414 476 28,500 2,143 Climbing FlightAware ADS-B
Sat 01:01:08 AM 33.4440 -118.4200 342° North 421 484 28,800 1,929 Climbing FlightAware ADS-B
Sat 01:01:25 AM 33.4780 -118.4230 356° North 432 497 29,400 1,920 Climbing FlightAware ADS-B
Sat 01:01:58 AM 33.5450 -118.4240 359° North 442 509 30,400 1,765 Climbing FlightAware ADS-B
Sat 01:02:33 AM 33.6160 -118.4260 359° North 449 517 31,400 2,167 Climbing FlightAware ADS-B
Sat 01:03:10 AM 33.6930 -118.4270 359° North 442 509 33,000 2,522 Climbing FlightAware ADS-B
Sat 01:03:42 AM 33.7590 -118.4290 359° North 437 503 34,300 2,206 Climbing FlightAware ADS-B
Sat 01:04:18 AM 33.8310 -118.4300 359° North 435 501 35,500 1,808 Climbing FlightAware ADS-B
Sat 01:04:55 AM 33.9060 -118.4330 358° North 434 499 36,500 1,545 Climbing FlightAware ADS-B
Sat 01:05:24 AM 33.9600 -118.4460 349° North 424 488 37,200 1,672 Climbing FlightAware ADS-B
Sat 01:05:56 AM 34.0200 -118.4750 338° Northwest 417 480 38,200 1,881 Climbing FlightAware ADS-B
Sat 01:06:31 AM 34.0820 -118.5050 338° Northwest 410 472 39,300 1,500 Climbing FlightAware ADS-B
Sat 01:07:08 AM 34.1460 -118.5360 338° Northwest 410 472 40,000 583 Climbing FlightAware ADS-B
Sat 01:07:43 AM 34.2080 -118.5670 338° Northwest 413 475 40,000  Level FlightAware ADS-B
Sat 01:08:15 AM 34.2650 -118.5950 338° Northwest 413 475 40,000  Level FlightAware ADS-B
Sat 01:08:52 AM 34.3300 -118.6270 338° Northwest 413 475 40,000  Level FlightAware ADS-B
Sat 01:09:25 AM 34.3890 -118.6540 339° North 415 478 40,000  Level FlightAware ADS-B
Sat 01:10:01 AM 34.4540 -118.6830 340° North 415 478 40,000 -247 Level FlightAware ADS-B
Sat 01:10:38 AM 34.5220 -118.7130 340° North 415 478 39,700 -635 Descending FlightAware ADS-B
Sat 01:11:26 AM 34.5910 -118.7450 339° North 406 467 39,100 -951 Descending FlightAware ADS-B
Sat 01:12:00 AM 34.6660 -118.7780 340° North 409 471 38,400 -971 Descending FlightAware ADS-B
Sat 01:12:34 AM 34.7260 -118.8060 339° North 413 475 38,000 -338 Descending FlightAware ADS-B
Sat 01:13:11 AM 34.7920 -118.8360 340° North 413 475 38,000  Level FlightAware ADS-B
Sat 01:13:46 AM 34.8530 -118.8640 339° North 413 475 38,000  Level FlightAware ADS-B
Sat 01:14:23 AM 34.9210 -118.8950 340° North 412 474 38,000  Level FlightAware ADS-B
Sat 01:14:55 AM 34.9770 -118.9200 340° North 411 473 38,000  Level FlightAware ADS-B
Sat 01:15:31 AM 35.0440 -118.9510 339° North 410 472 38,000  Level FlightAware ADS-B
Sat 01:16:03 AM 35.0980 -118.9760 339° North 410 472 38,000  Level FlightAware ADS-B
Sat 01:16:52 AM 35.1800 -119.0140 339° North 410 472 38,000  Level FlightAware ADS-B
Sat 01:17:29 AM 35.2350 -119.0400 339° North 410 472 38,000  Level FlightAware ADS-B
Sat 01:18:17 AM 35.1830 -119.0150 159° South 410 472 38,000  Level FlightAware ADS-B
Sat 01:18:53 AM 35.2370 -119.0400 339° North 410 472 38,000  Level FlightAware ADS-B
Sat 01:19:29 AM 35.4670 -119.1460 339° North 411 473 38,000  Level FlightAware ADS-B
Sat 01:20:05 AM 35.5300 -119.1750 339° North 411 473 38,000  Level FlightAware ADS-B
Sat 01:20:41 AM 35.5940 -119.2050 339° North 412 474 38,000  Level FlightAware ADS-B
Sat 01:21:13 AM 35.6510 -119.2310 340° North 411 473 38,000  Level FlightAware ADS-B
Sat 01:21:49 AM 35.7160 -119.2610 339° North 412 474 38,000  Level FlightAware ADS-B
Sat 01:22:23 AM 35.7750 -119.2890 339° North 412 474 38,000  Level FlightAware ADS-B
Sat 01:23:00 AM 35.8440 -119.3210 339° North 412 474 38,000  Level FlightAware ADS-B
Sat 01:23:36 AM 35.9060 -119.3510 339° North 413 475 38,000  Level FlightAware ADS-B
Sat 01:24:07 AM 35.9610 -119.3760 340° North 413 475 38,000  Level FlightAware ADS-B
Sat 01:24:45 AM 36.0310 -119.4090 339° North 414 476 38,000  Level FlightAware ADS-B
Sat 01:25:20 AM 36.0910 -119.4440 335° Northwest 410 472 38,000  Level FlightAware ADS-B
Sat 01:25:53 AM 36.1460 -119.4800 332° Northwest 408 470 38,000  Level FlightAware ADS-B
Sat 01:26:28 AM 36.2050 -119.5200 331° Northwest 408 470 38,000  Level FlightAware ADS-B
Sat 01:27:05 AM 36.2650 -119.5600 332° Northwest 407 468 38,000  Level FlightAware ADS-B
Sat 01:27:40 AM 36.3240 -119.6000 331° Northwest 408 470 38,000  Level FlightAware ADS-B
Sat 01:28:13 AM 36.3790 -119.6370 332° Northwest 409 471 38,000  Level FlightAware ADS-B
Sat 01:28:51 AM 36.4410 -119.6780 332° Northwest 410 472 38,000  Level FlightAware ADS-B
Sat 01:29:23 AM 36.4950 -119.7150 331° Northwest 411 473 38,000 -441 Level FlightAware ADS-B
Sat 01:29:59 AM 36.5540 -119.7550 331° Northwest 406 467 37,500 -833 Descending FlightAware ADS-B
Sat 01:30:35 AM 36.6150 -119.7950 332° Northwest 402 463 37,000 -417 Descending FlightAware ADS-B
Sat 01:31:11 AM 36.6730 -119.8350 331° Northwest 400 460 37,000  Level FlightAware ADS-B
Sat 01:31:43 AM 36.7250 -119.8700 332° Northwest 400 460 37,000  Level FlightAware ADS-B
Sat 01:32:19 AM 36.7830 -119.9100 331° Northwest 401 461 37,000  Level FlightAware ADS-B
Sat 01:32:55 AM 36.8410 -119.9490 332° Northwest 402 463 37,000 -250 Level FlightAware ADS-B
Sat 01:33:31 AM 36.9010 -119.9900 331° Northwest 402 463 36,700 -1,412 Descending FlightAware ADS-B
Sat 01:34:03 AM 36.9540 -120.0260 332° Northwest 403 464 35,400 -2,559 Descending FlightAware ADS-B
Sat 01:34:39 AM 37.0110 -120.0650 331° Northwest 403 464 33,800 -2,559 Descending FlightAware ADS-B
Sat 01:35:11 AM 37.0650 -120.1020 331° Northwest 396 456 32,500 -2,294 Descending FlightAware ADS-B
Sat 01:35:47 AM 37.1200 -120.1400 331° Northwest 390 449 31,200 -2,250 Descending FlightAware ADS-B
Sat 01:36:23 AM 37.1780 -120.1800 331° Northwest 383 441 29,800 -2,314 Descending FlightAware ADS-B
Sat 01:36:57 AM 37.2320 -120.2170 331° Northwest 377 434 28,500 -2,167 Descending FlightAware ADS-B
Sat 01:37:35 AM 37.2890 -120.2560 331° Northwest 370 426 27,200 -2,055 Descending FlightAware ADS-B
Sat 01:38:10 AM 37.3400 -120.2910 331° Northwest 364 419 26,000 -2,143 Descending FlightAware ADS-B
Sat 01:38:45 AM 37.3920 -120.3280 331° Northwest 359 413 24,700 -1,791 Descending FlightAware ADS-B
Sat 01:39:17 AM 37.4370 -120.3610 330° Northwest 357 411 24,000 -1,029 Descending FlightAware ADS-B
Sat 01:39:55 AM 37.4870 -120.4110 322° Northwest 358 412 23,500 -892 Descending FlightAware ADS-B
Sat 01:40:31 AM 37.5330 -120.4570 322° Northwest 354 407 22,900 -971 Descending FlightAware ADS-B
Sat 01:41:03 AM 37.5750 -120.4990 322° Northwest 350 403 22,400 -971 Descending FlightAware ADS-B
Sat 01:41:39 AM 37.6190 -120.5430 322° Northwest 348 400 21,800 -1,000 Descending FlightAware ADS-B
Sat 01:42:15 AM 37.6650 -120.5890 322° Northwest 344 396 21,200 -1,029 Descending FlightAware ADS-B
Sat 01:42:49 AM 37.7070 -120.6320 321° Northwest 342 394 20,600 -1,000 Descending FlightAware ADS-B
Sat 01:43:21 AM 37.7470 -120.6720 322° Northwest 340 391 20,100 -971 Descending FlightAware ADS-B
Sat 01:43:57 AM 37.7910 -120.7160 322° Northwest 338 389 19,500 -1,000 Descending FlightAware ADS-B
Sat 01:44:33 AM 37.8350 -120.7600 322° Northwest 341 392 18,900 -973 Descending FlightAware ADS-B
Sat 01:45:11 AM 37.8820 -120.8080 321° Northwest 342 394 18,300 -1,029 Descending FlightAware ADS-B
Sat 01:45:43 AM 37.9210 -120.8480 321° Northwest 337 388 17,700 -1,147 Descending FlightAware ADS-B
Sat 01:46:19 AM 37.9650 -120.8930 321° Northwest 332 382 17,000 -1,500 Descending FlightAware ADS-B
Sat 01:46:55 AM 38.0080 -120.9350 322° Northwest 327 376 15,900 -1,917 Descending FlightAware ADS-B
Sat 01:47:31 AM 38.0500 -120.9790 320° Northwest 324 373 14,700 -1,941 Descending FlightAware ADS-B
Sat 01:48:03 AM 38.0850 -121.0190 318° Northwest 323 372 13,700 -1,853 Descending FlightAware ADS-B
Sat 01:48:39 AM 38.1200 -121.0710 311° West 319 367 12,600 -1,750 Descending FlightAware ADS-B
Sat 01:49:15 AM 38.1540 -121.1210 311° West 314 361 11,600 -1,765 Descending FlightAware ADS-B
Sat 01:49:47 AM 38.1850 -121.1670 311° West 312 359 10,600 -1,574 Descending FlightAware ADS-B
Sat 01:50:16 AM 38.2120 -121.2060 311° West 300 345 10,000 -1,019 Descending FlightAware ADS-B
Sat 01:50:40 AM 38.2320 -121.2360 310° West 285 328 9,700 -1,091 Descending FlightAware ADS-B
Sat 01:51:00 AM 38.2500 -121.2630 310° West 283 326 9,200 -1,500 Descending FlightAware ADS-B
Sat 01:51:20 AM 38.2670 -121.2880 311° West 282 325 8,700 -1,500 Descending FlightAware ADS-B
Sat 01:51:40 AM 38.2840 -121.3130 311° West 281 323 8,200 -1,500 Descending FlightAware ADS-B
Sat 01:52:04 AM 38.3040 -121.3440 309° West 280 322 7,600 -1,429 Descending FlightAware ADS-B
Sat 01:52:22 AM 38.3200 -121.3660 313° West 277 319 7,200 -1,350 Descending FlightAware ADS-B
Sat 01:52:44 AM 38.3380 -121.3930 310° West 275 316 6,700 -1,429 Descending FlightAware ADS-B
Sat 01:53:04 AM 38.3540 -121.4180 309° West 273 314 6,200 -1,429 Descending FlightAware ADS-B
Sat 01:53:26 AM 38.3720 -121.4440 311° West 268 308 5,700 -1,364 Descending FlightAware ADS-B
Sat 01:53:48 AM 38.3890 -121.4700 310° West 257 296 5,200 -1,235 Descending FlightAware ADS-B
Sat 01:54:00 AM 38.3980 -121.4840 309° West 253 291 5,000 -1,000 Descending FlightAware ADS-B
Sat 01:54:24 AM 38.4170 -121.5120 311° West 246 283 4,600 -818 Descending FlightAware ADS-B
Sat 01:54:44 AM 38.4310 -121.5320 312° West 236 272 4,400 -600 Descending FlightAware ADS-B
Sat 01:55:04 AM 38.4450 -121.5520 312° West 224 258 4,200 -600 Descending FlightAware ADS-B
Sat 01:55:24 AM 38.4610 -121.5700 319° Northwest 215 247 4,000 -600 Descending FlightAware ADS-B
Sat 01:55:44 AM 38.4750 -121.5850 320° Northwest 208 239 3,800 -545 Descending FlightAware ADS-B
Sat 01:56:08 AM 38.4930 -121.6020 324° Northwest 194 223 3,600 -643 Descending FlightAware ADS-B
Sat 01:56:12 AM 38.4970 -121.6040 339° North 193 222 3,500 -1,000 Descending FlightAware ADS-B
Sat 01:56:20 AM 38.5040 -121.6050 354° North 192 221 3,400 -1,000 Descending FlightAware ADS-B
Sat 01:56:48 AM 38.5290 -121.6040 North 192 221 2,900 -857 Descending FlightAware ADS-B
Sat 01:57:02 AM 38.5410 -121.6040 360° North 188 216 2,800 -947 Descending FlightAware ADS-B
Sat 01:57:26 AM 38.5620 -121.6030 North 184 212 2,300 -1,091 Descending FlightAware ADS-B
Sat 01:57:46 AM 38.5780 -121.6030 360° North 173 199 2,000 -857 Descending FlightAware ADS-B
Sat 01:57:54 AM 38.5850 -121.6030 360° North 168 193 1,900 -882 Descending FlightAware ADS-B
Sat 01:58:20 AM 38.6030 -121.6030 360° North 150 173 1,500 -783 Descending FlightAware ADS-B
Sat 01:58:40 AM 38.6170 -121.6030 360° North 133 153 1,300 -706 Descending FlightAware ADS-B
Sat 01:58:54 AM 38.6250 -121.6020 North 127 146 1,100 -789 Descending FlightAware ADS-B
Sat 01:59:18 AM 38.6380 -121.6020 360° North 119 137 800 -667 Descending FlightAware ADS-B
Sat 01:59:30 AM 38.6450 -121.6020 360° North 119 137 700 -600 Descending FlightAware ADS-B
Sat 01:59:58 AM 38.6600 -121.6020 360° North 119 137 400 -720 Descending FlightAware ADS-B
Sat 02:00:20 AM 38.6720 -121.6020 360° North 117 135 100 -643 Descending FlightAware ADS-B
Sat 02:00:26 AM 38.6760 -121.6020 360° North 120 138 100  Level FlightAware ADS-B
Sat 02:00:46 AM 38.6870 -121.6020 360° North 123 142 -300 Descending FlightAware ADS-B

Login

Don't have an account? Register now (free) for customized features, flight alerts, and more!